• Join FlightAware (Why Join?)
  • Login
  • US Flag 
02:12AM EDT


 

Airport Tracker/Info


-or-


 

Live Flight TrackerFlight Track Log ✈ SWA3678 ✈ 11-May-2013 ✈ KBWI - KALB

Flight Track Log - Related Links

Times and Time Zones

All times are in EDT time to prevent confusion due to time zone crossing. See the SWA3678 flight status page for this flight to view local times or setup timezone preferences in your user account.

Time Position Orientation Groundspeed Altitude Reporting Facility
EDT Latitude Longitude Course Direction KTS MPH feet Rate Location/Type
11:48AM 39.1308 -76.7394 90° East 206 237 4,900  Level Washington Center
11:49AM 39.1297 -76.6350 91° East 173 199 6,900 2,460 Climbing Washington Center
11:50AM 39.1369 -76.5228 85° East 245 282 9,800 2,760 Climbing Washington Center
11:51AM 39.1400 -76.3997 88° East 290 334 12,400 2,760 Climbing Washington Center
11:52AM 39.1469 -76.2686 86° East 335 386 15,500 2,760 Climbing Washington Center
11:53AM 39.1667 -76.6382 90° East  Level FlightAware Approximate
11:53AM 39.1622 -76.1378 81° East 385 443 18,100  Level Washington Center
11:54AM 39.1794 -75.9906 81° East 405 466 21,100 2,520 Climbing Washington Center
11:55AM 39.2153 -75.8461 72° East 410 472 23,100 1,920 Climbing Washington Center
11:56AM 39.3072 -75.7311 44° Northeast 420 483 25,100 2,460 Climbing Washington Center
11:57AM 39.4011 -75.6103 45° Northeast 447 514 28,100 1,980 Climbing Washington Center
11:58AM 39.4906 -75.4947 45° Northeast 447 514 29,000 420 Climbing Washington Center
11:59AM 39.5842 -75.3761 44° Northeast 452 520 29,000  Level Washington Center
12:00PM 39.6694 -75.2600 46° Northeast 452 520 29,000  Level Washington Center
12:01PM 39.7625 -75.1192 49° Northeast 457 526 29,000  Level Washington Center
12:02PM 39.9028 -74.9244 47° Northeast 465 535 29,000  Level New York Center
12:03PM 40.0114 -74.8036 40° Northeast 460 529 29,000  Level New York Center
12:04PM 40.1025 -74.6922 43° Northeast 454 522 29,000  Level New York Center
12:05PM 40.1981 -74.5808 42° Northeast 454 522 29,000  Level New York Center
12:06PM 40.2803 -74.4792 43° Northeast 454 522 29,000  Level New York Center
12:08PM 40.4472 -74.2781 42° Northeast 450 518 29,000  Level Boston Center
12:09PM 40.5408 -74.1633 43° Northeast 455 524 29,000 -600 Level Boston Center
12:10PM 40.6319 -74.0508 43° Northeast 455 524 27,900 -2,040 Descending Boston Center
12:11PM 40.7400 -73.9247 41° Northeast 455 524 25,000 -1,980 Descending Boston Center
12:12PM 40.8353 -73.8117 42° Northeast 455 524 24,000 -840 Descending Boston Center
12:13PM 40.9283 -73.6983 43° Northeast 448 516 23,400 -540 Descending Boston Center
12:14PM 41.0192 -73.5872 43° Northeast 443 510 23,000 -600 Descending Boston Center
12:15PM 41.1200 -73.4872 37° Northeast 443 510 22,200 -900 Descending Boston Center
12:16PM 41.2350 -73.4475 15° North 422 486 21,200 -1,020 Descending Boston Center
12:17PM 41.3500 -73.4161 12° North 417 480 20,200 -1,020 Descending Boston Center
12:18PM 41.4667 -73.4264 356° North 412 474 19,200 -600 Descending Boston Center
12:19PM 41.5747 -73.4447 353° North 399 459 19,000 -480 Descending Boston Center
12:20PM 41.6850 -73.4603 354° North 399 459 18,300 -1,800 Descending Boston Center
12:21PM 41.7911 -73.4786 353° North 389 448 15,400 -2,520 Descending Boston Center
12:22PM 41.9017 -73.4944 354° North 389 448 13,300 -2,040 Descending Boston Center
12:23PM 42.0244 -73.5133 353° North 368 423 11,000 -1,320 Descending Boston Center
12:24PM 42.0764 -73.5225 353° North 353 406 11,000  Level Boston Center
12:25PM 42.1786 -73.5158 North 336 387 11,000 -300 Level Boston Center
12:26PM 42.2725 -73.5119 North 331 381 10,400 -960 Descending Boston Center
12:27PM 42.3514 -73.5300 350° North 296 341 9,100 -1,440 Descending Boston Center
12:28PM 42.4219 -73.5622 341° North 287 330 7,700 -1,440 Descending Boston Center
12:28PM 42.4364 -73.5653 351° North 287 330 7,400 -1,320 Descending Boston Center
12:29PM 42.4925 -73.5917 341° North 288 331 6,500 -1,320 Descending Boston Center
12:29PM 42.5175 -73.6006 345° North 287 330 6,100 -1,440 Descending Boston Center
12:30PM 42.5650 -73.6242 340° North 279 321 5,100 -1,320 Descending Boston Center
12:30PM 42.5858 -73.6328 343° North 287 330 4,800 -1,140 Descending Boston Center
12:31PM 42.6400 -73.6453 350° North 279 321 4,000 -840 Descending Boston Center
12:31PM 42.6669 -73.6431 North 282 325 4,000  Level Boston Center
12:32PM 42.7169 -73.6467 357° North 278 320 4,000  Level Boston Center
12:32PM 42.7442 -73.6417 North 272 313 4,000 -840 Level Boston Center
12:33PM 42.7961 -73.6511 352° North 278 320 3,200 -1,020 Descending Boston Center
12:33PM 42.8192 -73.6544 354° North 272 313 3,000 -240 Descending Boston Center
12:34PM 42.8711 -73.6697 348° North 244 281 3,000  Level Boston Center
12:34PM 42.8856 -73.6700 359° North 256 295 3,000 -720 Level Boston Center
12:35PM 42.9103 -73.7100 310° West 194 223 2,300 -900 Descending Boston Center
12:35PM 42.9100 -73.7300 269° West 178 205 2,100 -300 Descending Boston Center
12:36PM 42.9094 -73.7836 269° West 176 203 2,000 -120 Descending Boston Center
12:36PM 42.9008 -73.7919 215° Southwest 173 199 2,000  Level Boston Center
12:37PM 42.8714 -73.8111 206° Southwest 152 175 2,000  Level Boston Center
12:37PM 42.8694 -73.8111 180° South 146 168 2,000 -240 Level Boston Center
12:38PM 42.8361 -73.8106 179° South 140 161 1,800 -600 Descending Boston Center
12:39PM 42.8006 -73.8097 179° South 121 139 1,100 -660 Descending Boston Center
12:40PM 42.7672 -73.8061 175° South 119 137 500 -600 Descending Boston Center